createdAt,value
2019-01-16T00:02:27.636Z,100.00
2019-01-16T00:05:14.454Z,100.00
2019-01-16T00:07:48.331Z,100.00
2019-01-16T00:10:35.534Z,100.00
2019-01-16T00:13:06.536Z,100.00
2019-01-16T00:15:37.481Z,100.00
2019-01-16T00:18:16.999Z,100.00
2019-01-16T00:20:58.673Z,100.00
2019-01-16T00:23:32.440Z,100.00
2019-01-16T00:26:12.421Z,100.00
2019-01-16T00:28:49.221Z,100.00
2019-01-16T00:31:22.957Z,100.00
2019-01-16T00:33:56.755Z,100.00
2019-01-16T00:36:27.758Z,100.00
2019-01-16T00:39:07.472Z,100.00
2019-01-16T00:41:38.430Z,100.00
2019-01-16T00:44:18.099Z,100.00
2019-01-16T00:46:51.859Z,100.00
2019-01-16T00:49:29.014Z,100.00
2019-01-16T00:52:05.932Z,100.00
2019-01-16T00:54:39.806Z,100.00
2019-01-16T00:57:26.831Z,100.00
2019-01-16T01:00:01.016Z,100.00
2019-01-16T01:02:34.452Z,100.00
2019-01-16T01:05:22.154Z,100.00
2019-01-16T01:08:09.444Z,100.00
2019-01-16T01:10:43.371Z,100.00
2019-01-16T01:13:25.988Z,100.00
2019-01-16T01:15:59.859Z,100.00
2019-01-16T01:18:41.012Z,100.00
2019-01-16T01:21:18.433Z,100.00
2019-01-16T01:24:05.755Z,100.00
2019-01-16T01:26:52.841Z,100.00
2019-01-16T01:29:26.608Z,100.00
2019-01-16T01:32:00.583Z,100.00
2019-01-16T01:34:37.438Z,100.00
2019-01-16T01:37:14.316Z,100.00
2019-01-16T01:39:47.965Z,100.00
2019-01-16T01:42:24.617Z,100.00
2019-01-16T01:45:07.623Z,100.00
2019-01-16T01:47:41.144Z,100.00
2019-01-16T01:50:30.942Z,100.00
2019-01-16T01:53:18.223Z,100.00
2019-01-16T01:55:51.842Z,100.00
2019-01-16T01:58:28.212Z,100.00
2019-01-16T02:01:14.119Z,100.00
2019-01-16T02:03:51.094Z,100.00
2019-01-16T02:06:24.903Z,100.00
2019-01-16T02:08:58.623Z,100.00
2019-01-16T02:11:32.686Z,100.00
2019-01-16T02:14:03.912Z,100.00
2019-01-16T02:16:34.957Z,100.00
2019-01-16T02:19:09.555Z,100.00
2019-01-16T02:21:46.344Z,100.00
2019-01-16T02:24:33.690Z,100.00
2019-01-16T02:27:07.989Z,100.00
2019-01-16T02:29:47.619Z,100.00
2019-01-16T02:32:36.504Z,100.00
2019-01-16T02:35:10.560Z,100.00
2019-01-16T02:37:41.556Z,100.00
2019-01-16T02:40:19.190Z,100.00
2019-01-16T02:42:52.631Z,100.00
2019-01-16T02:45:23.931Z,100.00
2019-01-16T02:48:10.871Z,100.00
2019-01-16T02:50:41.817Z,100.00
2019-01-16T02:53:15.356Z,100.00
2019-01-16T02:56:02.125Z,100.00
2019-01-16T02:58:35.782Z,100.00
2019-01-16T03:01:06.850Z,100.00
2019-01-16T03:03:41.158Z,100.00
2019-01-16T03:06:27.378Z,100.00
2019-01-16T03:08:58.320Z,100.00
2019-01-16T03:11:29.239Z,100.00
2019-01-16T03:14:06.412Z,100.00
2019-01-16T03:16:40.306Z,100.00
2019-01-16T03:19:16.693Z,100.00
2019-01-16T03:21:47.607Z,100.00
2019-01-16T03:24:27.326Z,100.00
2019-01-16T03:27:12.995Z,100.00
2019-01-16T03:29:49.826Z,100.00
2019-01-16T03:32:20.951Z,100.00
2019-01-16T03:35:06.926Z,100.00
2019-01-16T03:37:40.354Z,100.00
2019-01-16T03:40:21.503Z,100.00
2019-01-16T03:42:58.417Z,100.00
2019-01-16T03:45:29.373Z,100.00
2019-01-16T03:48:03.195Z,100.00
2019-01-16T03:50:37.177Z,100.00
2019-01-16T03:53:08.160Z,100.00
2019-01-16T03:55:45.104Z,100.00
2019-01-16T03:58:31.003Z,100.00
2019-01-16T04:01:01.961Z,100.00
2019-01-16T04:03:41.752Z,100.00
2019-01-16T04:06:24.142Z,100.00
2019-01-16T04:08:58.051Z,100.00
2019-01-16T04:11:37.630Z,100.00
2019-01-16T04:14:20.841Z,100.00
2019-01-16T04:17:00.814Z,100.00
2019-01-16T04:19:37.688Z,100.00
2019-01-16T04:22:15.030Z,100.00
2019-01-16T04:25:01.784Z,100.00
2019-01-16T04:27:50.745Z,100.00
2019-01-16T04:30:33.577Z,100.00
2019-01-16T04:33:22.751Z,100.00
2019-01-16T04:36:05.319Z,100.00
2019-01-16T04:38:39.219Z,100.00
2019-01-16T04:41:10.176Z,100.00
2019-01-16T04:43:41.100Z,100.00
2019-01-16T04:46:24.154Z,100.00
2019-01-16T04:49:13.071Z,100.00
2019-01-16T04:52:00.538Z,100.00
2019-01-16T04:54:31.473Z,100.00
2019-01-16T04:57:08.149Z,100.00
2019-01-16T04:59:41.758Z,100.00
2019-01-16T05:02:12.697Z,100.00
2019-01-16T05:04:54.405Z,100.00
2019-01-16T05:07:34.615Z,100.00
2019-01-16T05:10:08.085Z,100.00
2019-01-16T05:12:39.021Z,100.00
2019-01-16T05:15:28.570Z,100.00
2019-01-16T05:18:05.225Z,100.00
2019-01-16T05:20:36.178Z,100.00
2019-01-16T05:23:12.832Z,100.00
2019-01-16T05:25:59.592Z,100.00
2019-01-16T05:28:30.524Z,100.00
2019-01-16T05:31:04.442Z,100.00
2019-01-16T05:33:50.414Z,100.00
2019-01-16T05:36:21.473Z,100.00
2019-01-16T05:39:10.233Z,100.00
2019-01-16T05:41:47.157Z,100.00
2019-01-16T05:44:18.099Z,100.00
2019-01-16T05:46:57.893Z,100.00
2019-01-16T05:49:35.032Z,100.00
2019-01-16T05:52:22.320Z,100.00
2019-01-16T05:55:11.158Z,100.00
2019-01-16T05:57:50.890Z,100.00
2019-01-16T06:00:24.222Z,100.00
2019-01-16T06:03:11.551Z,99.52
2019-01-16T06:05:42.474Z,99.52
2019-01-16T06:08:13.414Z,98.54
2019-01-16T06:10:44.356Z,98.54
2019-01-16T06:13:18.004Z,98.63
2019-01-16T06:15:48.938Z,98.58
2019-01-16T06:18:37.720Z,98.50
2019-01-16T06:21:08.639Z,98.51
2019-01-16T06:23:48.490Z,98.34
2019-01-16T06:26:22.123Z,98.34
2019-01-16T06:29:09.535Z,98.27
2019-01-16T06:31:40.472Z,98.27
2019-01-16T06:34:17.126Z,98.90
2019-01-16T06:36:48.064Z,99.16
2019-01-16T06:39:25.194Z,98.73
2019-01-16T06:42:04.840Z,98.81
2019-01-16T06:44:44.688Z,98.87
2019-01-16T06:47:15.625Z,98.00
2019-01-16T06:49:52.527Z,97.49
2019-01-16T06:52:23.555Z,97.47
2019-01-16T06:54:54.472Z,96.85
2019-01-16T06:57:25.406Z,97.32
2019-01-16T07:00:02.289Z,97.63
2019-01-16T07:02:49.695Z,97.03
2019-01-16T07:05:36.765Z,97.27
2019-01-16T07:08:19.826Z,97.46
2019-01-16T07:10:56.220Z,96.69
2019-01-16T07:13:39.406Z,97.38
2019-01-16T07:16:13.248Z,96.03
2019-01-16T07:18:53.410Z,96.12
2019-01-16T07:21:27.605Z,97.06
2019-01-16T07:23:58.548Z,97.06
2019-01-16T07:26:35.273Z,96.20
2019-01-16T07:29:09.679Z,96.31
2019-01-16T07:31:46.473Z,96.69
2019-01-16T07:34:20.397Z,97.42
2019-01-16T07:37:00.644Z,97.29
2019-01-16T07:39:43.222Z,98.03
2019-01-16T07:42:32.263Z,98.83
2019-01-16T07:45:08.790Z,98.83
2019-01-16T07:47:40.093Z,99.24
2019-01-16T07:50:23.474Z,99.80
2019-01-16T07:53:06.903Z,100.00
2019-01-16T07:55:37.855Z,100.00
2019-01-16T07:58:08.960Z,100.00
2019-01-16T08:00:39.918Z,99.83
2019-01-16T08:03:13.811Z,98.97
2019-01-16T08:06:00.844Z,98.86
2019-01-16T08:08:43.987Z,99.36
2019-01-16T08:11:31.036Z,98.57
2019-01-16T08:14:01.964Z,98.86
2019-01-16T08:16:33.582Z,98.61
2019-01-16T08:19:04.603Z,98.26
2019-01-16T08:21:41.460Z,98.74
2019-01-16T08:24:15.409Z,98.11
2019-01-16T08:26:46.412Z,96.96
2019-01-16T08:29:17.326Z,97.32
2019-01-16T08:32:03.672Z,96.39
2019-01-16T08:34:47.059Z,96.37
2019-01-16T08:37:17.991Z,96.72
2019-01-16T08:40:04.565Z,96.00
2019-01-16T08:42:47.647Z,96.00
2019-01-16T08:45:27.466Z,96.76
2019-01-16T08:48:14.582Z,96.26
2019-01-16T08:50:57.676Z,96.75
2019-01-16T08:53:43.562Z,96.91
2019-01-16T08:56:26.493Z,96.62
2019-01-16T08:58:57.436Z,95.21
2019-01-16T09:01:34.458Z,95.70
2019-01-16T09:04:06.024Z,95.13
2019-01-16T09:06:37.204Z,94.65
2019-01-16T09:09:10.454Z,94.65
2019-01-16T09:11:57.960Z,95.26
2019-01-16T09:14:41.001Z,95.37
2019-01-16T09:17:26.897Z,95.13
2019-01-16T09:19:57.885Z,94.89
2019-01-16T09:22:34.715Z,94.54
2019-01-16T09:25:07.470Z,94.61
2019-01-16T09:27:38.530Z,94.82
2019-01-16T09:30:18.951Z,96.03
2019-01-16T09:32:56.048Z,94.66
2019-01-16T09:35:26.979Z,94.77
2019-01-16T09:38:06.761Z,95.04
2019-01-16T09:40:49.874Z,95.76
2019-01-16T09:43:20.869Z,95.76
2019-01-16T09:46:01.008Z,96.28
2019-01-16T09:48:34.675Z,96.21
2019-01-16T09:51:24.408Z,96.51
2019-01-16T09:53:55.340Z,96.31
2019-01-16T09:56:28.972Z,96.35
2019-01-16T09:58:59.913Z,96.24
2019-01-16T10:01:47.456Z,96.25
2019-01-16T10:04:18.401Z,96.91
2019-01-16T10:06:49.323Z,96.81
2019-01-16T10:09:26.134Z,97.10
2019-01-16T10:12:09.253Z,97.01
2019-01-16T10:14:42.868Z,97.19
2019-01-16T10:17:13.959Z,97.56
2019-01-16T10:19:47.944Z,97.46
2019-01-16T10:22:27.894Z,97.94
2019-01-16T10:24:58.907Z,97.91
2019-01-16T10:27:32.541Z,97.49
2019-01-16T10:30:21.545Z,97.93
2019-01-16T10:32:52.458Z,97.53
2019-01-16T10:35:29.384Z,97.44
2019-01-16T10:38:03.369Z,97.62
2019-01-16T10:40:43.313Z,97.79
2019-01-16T10:43:14.296Z,97.25
2019-01-16T10:45:56.834Z,97.45
2019-01-16T10:48:30.618Z,97.80
2019-01-16T10:51:07.498Z,97.41
2019-01-16T10:53:50.632Z,96.86
2019-01-16T10:56:36.704Z,97.27
2019-01-16T10:59:10.798Z,97.61
2019-01-16T11:01:53.931Z,97.96
2019-01-16T11:04:41.092Z,97.55
2019-01-16T11:07:44.264Z,97.64
2019-01-16T11:10:27.226Z,97.80
2019-01-16T11:13:12.797Z,97.59
2019-01-16T11:15:43.709Z,97.93
2019-01-16T11:18:30.562Z,97.98
2019-01-16T11:21:01.548Z,97.85
2019-01-16T11:23:49.154Z,98.19
2019-01-16T11:26:20.492Z,97.99
2019-01-16T11:29:06.302Z,98.14
2019-01-16T11:31:40.137Z,97.95
2019-01-16T11:34:11.067Z,98.26
2019-01-16T11:36:44.691Z,98.17
2019-01-16T11:39:18.751Z,97.50
2019-01-16T11:41:49.672Z,97.21
2019-01-16T11:44:20.623Z,97.00
2019-01-16T11:46:51.568Z,97.56
2019-01-16T11:49:39.260Z,97.51
2019-01-16T11:52:10.262Z,97.44
2019-01-16T11:54:41.186Z,97.41
2019-01-16T11:57:12.109Z,96.97
2019-01-16T11:59:45.972Z,97.31
2019-01-16T12:02:16.907Z,97.20
2019-01-16T12:04:53.411Z,97.73
2019-01-16T12:07:39.694Z,97.21
2019-01-16T12:10:29.608Z,97.39
2019-01-16T12:13:03.203Z,97.45
2019-01-16T12:15:34.151Z,97.42
2019-01-16T12:18:10.865Z,96.96
2019-01-16T12:20:41.807Z,97.41
2019-01-16T12:23:15.555Z,96.39
2019-01-16T12:25:48.969Z,96.86
2019-01-16T12:28:19.893Z,96.41
2019-01-16T12:30:50.828Z,96.53
2019-01-16T12:33:37.987Z,96.78
2019-01-16T12:36:12.294Z,96.54
2019-01-16T12:38:43.214Z,96.08
2019-01-16T12:41:19.967Z,96.14
2019-01-16T12:43:53.632Z,95.91
2019-01-16T12:46:27.711Z,95.71
2019-01-16T12:48:59.726Z,95.11
2019-01-16T12:51:47.177Z,95.24
2019-01-16T12:54:21.040Z,94.99
2019-01-16T12:57:10.206Z,94.63
2019-01-16T12:59:47.007Z,95.19
2019-01-16T13:02:34.007Z,95.02
2019-01-16T13:05:17.088Z,94.75
2019-01-16T13:07:50.772Z,94.76
2019-01-16T13:10:39.763Z,94.90
2019-01-16T13:13:19.621Z,94.87
2019-01-16T13:15:59.565Z,94.94
2019-01-16T13:18:46.631Z,94.99
2019-01-16T13:21:20.683Z,94.33
2019-01-16T13:23:54.067Z,94.74
2019-01-16T13:26:43.027Z,94.36
2019-01-16T13:29:16.638Z,94.42
2019-01-16T13:31:47.560Z,94.39
2019-01-16T13:34:18.487Z,94.45
2019-01-16T13:36:49.411Z,94.45
2019-01-16T13:39:20.348Z,94.29
2019-01-16T13:41:51.267Z,93.31
2019-01-16T13:44:38.405Z,93.05
2019-01-16T13:47:09.455Z,93.59
2019-01-16T13:49:43.189Z,93.11
2019-01-16T13:52:23.409Z,93.28
2019-01-16T13:54:57.400Z,92.49
2019-01-16T13:57:28.333Z,93.01
2019-01-16T13:59:59.288Z,92.87
2019-01-16T14:02:41.035Z,92.74
2019-01-16T14:05:15.136Z,91.69
2019-01-16T14:08:01.204Z,91.69
2019-01-16T14:10:32.142Z,92.34
2019-01-16T14:13:03.122Z,92.32
2019-01-16T14:15:49.069Z,92.32
2019-01-16T14:18:20.083Z,92.60
2019-01-16T14:20:51.030Z,92.30
2019-01-16T14:23:38.269Z,91.98
2019-01-16T14:26:12.488Z,92.27
2019-01-16T14:28:46.398Z,92.53
2019-01-16T14:31:20.016Z,92.28
2019-01-16T14:34:03.234Z,92.25
2019-01-16T14:36:37.050Z,92.46
2019-01-16T14:39:10.107Z,92.72
2019-01-16T14:41:41.203Z,92.74
2019-01-16T14:44:12.374Z,94.86
2019-01-16T14:46:43.319Z,94.98
2019-01-16T14:49:29.404Z,92.66
2019-01-16T14:52:09.343Z,92.83
2019-01-16T14:54:43.229Z,93.09
2019-01-16T14:57:14.291Z,92.85
2019-01-16T14:59:53.976Z,93.58
2019-01-16T15:02:24.995Z,93.47
2019-01-16T15:05:05.236Z,93.37
2019-01-16T15:07:40.067Z,93.81
2019-01-16T15:10:28.932Z,94.58
2019-01-16T15:13:10.695Z,94.45
2019-01-16T15:15:46.544Z,94.83
2019-01-16T15:18:24.794Z,94.87
2019-01-16T15:21:02.762Z,94.87
2019-01-16T15:23:51.150Z,95.89
2019-01-16T15:26:35.385Z,95.99
2019-01-16T15:29:10.317Z,96.84
2019-01-16T15:31:48.745Z,96.56
2019-01-16T15:34:23.829Z,97.16
2019-01-16T15:36:56.148Z,96.82
2019-01-16T15:39:44.075Z,96.40
2019-01-16T15:42:22.582Z,96.08
2019-01-16T15:45:13.400Z,97.18
2019-01-16T15:47:45.351Z,96.67
2019-01-16T15:50:24.089Z,97.51
2019-01-16T15:53:04.929Z,98.36
2019-01-16T15:55:53.780Z,98.06
2019-01-16T15:58:32.017Z,97.46
2019-01-16T16:01:16.975Z,97.57
2019-01-16T16:04:04.528Z,97.25
2019-01-16T16:06:47.237Z,97.44
2019-01-16T16:09:18.155Z,98.02
2019-01-16T16:11:49.290Z,97.40
2019-01-16T16:14:38.076Z,97.05
2019-01-16T16:17:14.782Z,97.24
2019-01-16T16:19:51.419Z,97.75
2019-01-16T16:22:25.022Z,99.18
2019-01-16T16:25:01.753Z,99.60
2019-01-16T16:27:49.997Z,99.75
2019-01-16T16:30:39.553Z,99.93
2019-01-16T16:33:10.489Z,99.59
2019-01-16T16:35:47.161Z,99.54
2019-01-16T16:38:18.096Z,100.00
2019-01-16T16:40:58.140Z,100.00
2019-01-16T16:43:32.066Z,100.00
2019-01-16T16:46:19.113Z,100.00
2019-01-16T16:48:53.985Z,100.00
2019-01-16T16:51:33.911Z,100.00
2019-01-16T16:54:21.196Z,100.00
2019-01-16T16:56:52.102Z,100.00
2019-01-16T16:59:29.271Z,99.96
2019-01-16T17:02:16.355Z,100.00
2019-01-16T17:05:02.653Z,100.00
2019-01-16T17:07:33.587Z,100.00
2019-01-16T17:10:07.556Z,100.00
2019-01-16T17:12:54.815Z,99.64
2019-01-16T17:15:41.824Z,99.54
2019-01-16T17:18:28.797Z,100.00
2019-01-16T17:21:15.779Z,100.00
2019-01-16T17:24:01.656Z,100.00
2019-01-16T17:26:32.675Z,100.00
2019-01-16T17:29:03.656Z,100.00
2019-01-16T17:31:46.451Z,99.75
2019-01-16T17:34:17.404Z,99.76
2019-01-16T17:36:48.428Z,99.73
2019-01-16T17:39:31.539Z,99.58
2019-01-16T17:42:05.389Z,99.46
2019-01-16T17:44:54.477Z,98.90
2019-01-16T17:47:28.685Z,97.63
2019-01-16T17:50:17.771Z,98.21
2019-01-16T17:53:04.137Z,98.56
2019-01-16T17:55:50.971Z,98.82
2019-01-16T17:58:24.963Z,97.86
2019-01-16T18:01:08.075Z,97.93
2019-01-16T18:03:42.107Z,98.30
2019-01-16T18:06:15.880Z,98.20
2019-01-16T18:08:52.904Z,98.52
2019-01-16T18:11:32.961Z,98.30
2019-01-16T18:14:12.883Z,98.52
2019-01-16T18:16:55.473Z,98.66
2019-01-16T18:19:29.117Z,98.54
2019-01-16T18:22:18.100Z,98.36
2019-01-16T18:24:51.813Z,98.43
2019-01-16T18:27:22.755Z,98.39
2019-01-16T18:30:10.270Z,98.11
2019-01-16T18:32:56.226Z,98.22
2019-01-16T18:35:30.097Z,98.11
2019-01-16T18:38:13.069Z,98.32
2019-01-16T18:40:56.236Z,98.39
2019-01-16T18:43:43.638Z,98.34
2019-01-16T18:46:17.569Z,98.58
2019-01-16T18:48:51.668Z,98.61
2019-01-16T18:51:25.276Z,98.66
2019-01-16T18:54:08.338Z,98.72
2019-01-16T18:56:39.283Z,98.84
2019-01-16T18:59:15.718Z,99.00
2019-01-16T19:01:55.651Z,98.97
2019-01-16T19:04:26.592Z,98.66
2019-01-16T19:07:12.773Z,99.00
2019-01-16T19:09:46.580Z,98.89
2019-01-16T19:12:35.816Z,99.17
2019-01-16T19:15:09.978Z,98.98
2019-01-16T19:17:43.869Z,99.43
2019-01-16T19:20:23.980Z,99.40
2019-01-16T19:23:03.904Z,99.58
2019-01-16T19:25:37.901Z,99.62
2019-01-16T19:28:11.851Z,99.45
2019-01-16T19:30:48.828Z,100.00
2019-01-16T19:33:22.705Z,100.00
2019-01-16T19:35:59.416Z,98.89
2019-01-16T19:38:45.272Z,98.48
2019-01-16T19:41:32.695Z,99.20
2019-01-16T19:44:06.691Z,98.69
2019-01-16T19:46:52.842Z,98.07
2019-01-16T19:49:35.928Z,98.39
2019-01-16T19:52:07.208Z,98.03
2019-01-16T19:54:46.876Z,97.19
2019-01-16T19:57:17.899Z,97.56
2019-01-16T19:59:54.561Z,97.89
2019-01-16T20:02:31.517Z,98.54
2019-01-16T20:05:05.250Z,98.80
2019-01-16T20:07:45.323Z,97.83
2019-01-16T20:10:19.425Z,98.05
2019-01-16T20:12:59.657Z,98.06
2019-01-16T20:15:42.894Z,97.33
2019-01-16T20:18:29.074Z,97.11
2019-01-16T20:21:16.192Z,97.54
2019-01-16T20:24:02.985Z,97.54
2019-01-16T20:26:43.067Z,97.75
2019-01-16T20:29:25.916Z,98.17
2019-01-16T20:32:02.491Z,98.20
2019-01-16T20:34:33.422Z,96.99
2019-01-16T20:37:16.116Z,97.45
2019-01-16T20:40:03.464Z,97.64
2019-01-16T20:42:46.095Z,97.56
2019-01-16T20:45:25.990Z,97.37
2019-01-16T20:47:59.712Z,96.77
2019-01-16T20:50:36.496Z,96.39
2019-01-16T20:53:17.439Z,96.43
2019-01-16T20:55:52.197Z,96.83
2019-01-16T20:58:26.048Z,96.96
2019-01-16T21:01:05.792Z,96.45
2019-01-16T21:03:45.894Z,96.31
2019-01-16T21:06:23.167Z,96.05
2019-01-16T21:09:09.999Z,95.26
2019-01-16T21:11:41.115Z,95.02
2019-01-16T21:14:14.988Z,95.07
2019-01-16T21:16:51.913Z,94.69
2019-01-16T21:19:39.360Z,94.94
2019-01-16T21:22:28.403Z,95.12
2019-01-16T21:25:16.268Z,95.54
2019-01-16T21:27:50.591Z,95.32
2019-01-16T21:30:36.819Z,95.12
2019-01-16T21:33:16.715Z,95.30
2019-01-16T21:36:03.884Z,95.75
2019-01-16T21:38:43.488Z,95.45
2019-01-16T21:41:14.436Z,95.27
2019-01-16T21:44:01.699Z,95.33
2019-01-16T21:46:41.209Z,95.69
2019-01-16T21:49:18.101Z,95.63
2019-01-16T21:51:52.210Z,95.64
2019-01-16T21:54:39.814Z,95.69
2019-01-16T21:57:27.183Z,95.50
2019-01-16T22:00:14.371Z,95.65
2019-01-16T22:02:45.442Z,95.87
2019-01-16T22:05:32.805Z,96.10
2019-01-16T22:08:20.162Z,96.20
2019-01-16T22:10:51.238Z,95.99
2019-01-16T22:13:28.000Z,96.07
2019-01-16T22:16:04.791Z,96.09
2019-01-16T22:18:38.763Z,95.75
2019-01-16T22:21:18.201Z,96.13
2019-01-16T22:23:52.245Z,95.95
2019-01-16T22:26:23.238Z,96.17
2019-01-16T22:29:10.062Z,96.22
2019-01-16T22:31:46.691Z,95.93
2019-01-16T22:34:33.799Z,95.94
2019-01-16T22:37:10.749Z,96.14
2019-01-16T22:39:57.726Z,96.10
2019-01-16T22:42:34.803Z,95.82
2019-01-16T22:45:23.762Z,95.97
2019-01-16T22:48:11.141Z,96.25
2019-01-16T22:50:54.543Z,95.85
2019-01-16T22:53:32.732Z,96.02
2019-01-16T22:56:21.792Z,95.47
2019-01-16T22:59:12.603Z,95.73
2019-01-16T23:01:47.399Z,95.88
2019-01-16T23:04:34.609Z,96.13
2019-01-16T23:07:08.331Z,96.11
2019-01-16T23:09:55.361Z,96.32
2019-01-16T23:12:41.169Z,96.36
2019-01-16T23:15:30.801Z,95.65
2019-01-16T23:18:07.493Z,95.98
2019-01-16T23:20:38.432Z,95.90
2019-01-16T23:23:21.373Z,96.15
2019-01-16T23:26:07.678Z,96.03
2019-01-16T23:28:41.280Z,96.00
2019-01-16T23:31:12.289Z,96.19
2019-01-16T23:33:45.941Z,96.19
2019-01-16T23:36:33.243Z,96.52
2019-01-16T23:39:06.866Z,96.33
2019-01-16T23:41:40.543Z,96.12
2019-01-16T23:44:20.749Z,96.27
2019-01-16T23:47:00.577Z,96.24
2019-01-16T23:49:49.856Z,96.04
2019-01-16T23:52:20.785Z,96.21
2019-01-16T23:54:51.696Z,96.39
2019-01-16T23:57:22.640Z,96.38
2019-01-16T23:59:53.543Z,96.30
